<?xml version="1.0" encoding="UTF-8" standalone="no" ?>
<gpx xmlns="http://www.topografix.com/GPX/1/1" xmlns:xsi="http://www.w3.org/2001/XMLSchema-instance" xsi:schemaLocation="http://www.topografix.com/GPX/1/1 http://www.topografix.com/GPX/1/1/gpx.xsd" version="1.1" creator="VisuGPX - https://www.visugpx.com">
  <metadata>
    <name>La Brême Et Le Plaisir Fontaine</name>
    <desc><![CDATA[Route created on plotaroute.com]]></desc>
  </metadata>
  <trk>
    <name><![CDATA[La Brême Et Le Plaisir Fontaine]]></name>
    <trkseg>
      <trkpt lat="47.11846" lon="6.12093">
        <ele>341</ele>
        <time>2022-06-05T00:00:00Z</time>
      </trkpt>
      <trkpt lat="47.11852" lon="6.12104">
        <ele>342</ele>
        <time>2022-06-05T00:00:07Z</time>
      </trkpt>
      <trkpt lat="47.11872" lon="6.12125">
        <ele>342</ele>
        <time>2022-06-05T00:00:28Z</time>
      </trkpt>
      <trkpt lat="47.11898" lon="6.12142">
        <ele>341</ele>
        <time>2022-06-05T00:00:51Z</time>
      </trkpt>
      <trkpt lat="47.11937" lon="6.1219">
        <ele>342</ele>
        <time>2022-06-05T00:01:31Z</time>
      </trkpt>
      <trkpt lat="47.11951" lon="6.12213">
        <ele>343</ele>
        <time>2022-06-05T00:01:48Z</time>
      </trkpt>
      <trkpt lat="47.11972" lon="6.1226">
        <ele>344</ele>
        <time>2022-06-05T00:02:18Z</time>
      </trkpt>
      <trkpt lat="47.11997" lon="6.12284">
        <ele>343</ele>
        <time>2022-06-05T00:02:42Z</time>
      </trkpt>
      <trkpt lat="47.12011" lon="6.12314">
        <ele>344</ele>
        <time>2022-06-05T00:03:02Z</time>
      </trkpt>
      <trkpt lat="47.12014" lon="6.12327">
        <ele>344</ele>
        <time>2022-06-05T00:03:10Z</time>
      </trkpt>
      <trkpt lat="47.12021" lon="6.12343">
        <ele>346</ele>
        <time>2022-06-05T00:03:20Z</time>
      </trkpt>
      <trkpt lat="47.12037" lon="6.12346">
        <ele>344</ele>
        <time>2022-06-05T00:03:33Z</time>
      </trkpt>
      <trkpt lat="47.12077" lon="6.12345">
        <ele>341</ele>
        <time>2022-06-05T00:04:05Z</time>
      </trkpt>
      <trkpt lat="47.12172" lon="6.12379">
        <ele>355</ele>
        <time>2022-06-05T00:05:24Z</time>
      </trkpt>
      <trkpt lat="47.12226" lon="6.12387">
        <ele>355</ele>
        <time>2022-06-05T00:06:07Z</time>
      </trkpt>
      <trkpt lat="47.12258" lon="6.12394">
        <ele>356</ele>
        <time>2022-06-05T00:06:33Z</time>
      </trkpt>
      <trkpt lat="47.12296" lon="6.12408">
        <ele>356</ele>
        <time>2022-06-05T00:07:04Z</time>
      </trkpt>
      <trkpt lat="47.12317" lon="6.12418">
        <ele>357</ele>
        <time>2022-06-05T00:07:22Z</time>
      </trkpt>
      <trkpt lat="47.12443" lon="6.12515">
        <ele>372</ele>
        <time>2022-06-05T00:09:16Z</time>
      </trkpt>
      <trkpt lat="47.12481" lon="6.12537">
        <ele>377</ele>
        <time>2022-06-05T00:09:49Z</time>
      </trkpt>
      <trkpt lat="47.125" lon="6.12551">
        <ele>380</ele>
        <time>2022-06-05T00:10:06Z</time>
      </trkpt>
      <trkpt lat="47.12527" lon="6.12582">
        <ele>386</ele>
        <time>2022-06-05T00:10:34Z</time>
      </trkpt>
      <trkpt lat="47.1256" lon="6.12611">
        <ele>392</ele>
        <time>2022-06-05T00:11:04Z</time>
      </trkpt>
      <trkpt lat="47.12728" lon="6.12751">
        <ele>404</ele>
        <time>2022-06-05T00:13:39Z</time>
      </trkpt>
      <trkpt lat="47.12876" lon="6.12863">
        <ele>404</ele>
        <time>2022-06-05T00:15:52Z</time>
      </trkpt>
      <trkpt lat="47.12897" lon="6.12892">
        <ele>408</ele>
        <time>2022-06-05T00:16:15Z</time>
      </trkpt>
      <trkpt lat="47.12929" lon="6.12918">
        <ele>412</ele>
        <time>2022-06-05T00:16:44Z</time>
      </trkpt>
      <trkpt lat="47.12962" lon="6.1295">
        <ele>412</ele>
        <time>2022-06-05T00:17:17Z</time>
      </trkpt>
      <trkpt lat="47.12982" lon="6.12976">
        <ele>414</ele>
        <time>2022-06-05T00:17:38Z</time>
      </trkpt>
      <trkpt lat="47.13002" lon="6.13008">
        <ele>418</ele>
        <time>2022-06-05T00:18:02Z</time>
      </trkpt>
      <trkpt lat="47.13022" lon="6.13048">
        <ele>420</ele>
        <time>2022-06-05T00:18:28Z</time>
      </trkpt>
      <trkpt lat="47.13047" lon="6.13073">
        <ele>420</ele>
        <time>2022-06-05T00:18:53Z</time>
      </trkpt>
      <trkpt lat="47.13071" lon="6.13108">
        <ele>420</ele>
        <time>2022-06-05T00:19:20Z</time>
      </trkpt>
      <trkpt lat="47.13092" lon="6.13158">
        <ele>420</ele>
        <time>2022-06-05T00:19:52Z</time>
      </trkpt>
      <trkpt lat="47.13119" lon="6.13196">
        <ele>417</ele>
        <time>2022-06-05T00:20:22Z</time>
      </trkpt>
      <trkpt lat="47.13139" lon="6.1323">
        <ele>419</ele>
        <time>2022-06-05T00:20:47Z</time>
      </trkpt>
      <trkpt lat="47.13183" lon="6.1331">
        <ele>412</ele>
        <time>2022-06-05T00:21:43Z</time>
      </trkpt>
      <trkpt lat="47.13197" lon="6.13332">
        <ele>408</ele>
        <time>2022-06-05T00:21:59Z</time>
      </trkpt>
      <trkpt lat="47.13202" lon="6.13346">
        <ele>408</ele>
        <time>2022-06-05T00:22:08Z</time>
      </trkpt>
      <trkpt lat="47.13211" lon="6.13365">
        <ele>407</ele>
        <time>2022-06-05T00:22:20Z</time>
      </trkpt>
      <trkpt lat="47.13218" lon="6.13392">
        <ele>408</ele>
        <time>2022-06-05T00:22:36Z</time>
      </trkpt>
      <trkpt lat="47.13225" lon="6.1343">
        <ele>411</ele>
        <time>2022-06-05T00:22:57Z</time>
      </trkpt>
      <trkpt lat="47.13227" lon="6.13462">
        <ele>411</ele>
        <time>2022-06-05T00:23:15Z</time>
      </trkpt>
      <trkpt lat="47.13225" lon="6.13546">
        <ele>417</ele>
        <time>2022-06-05T00:24:01Z</time>
      </trkpt>
      <trkpt lat="47.13227" lon="6.13574">
        <ele>417</ele>
        <time>2022-06-05T00:24:16Z</time>
      </trkpt>
      <trkpt lat="47.13237" lon="6.13627">
        <ele>419</ele>
        <time>2022-06-05T00:24:46Z</time>
      </trkpt>
      <trkpt lat="47.13271" lon="6.13744">
        <ele>418</ele>
        <time>2022-06-05T00:25:56Z</time>
      </trkpt>
      <trkpt lat="47.13312" lon="6.13851">
        <ele>409</ele>
        <time>2022-06-05T00:27:03Z</time>
      </trkpt>
      <trkpt lat="47.13324" lon="6.13872">
        <ele>406</ele>
        <time>2022-06-05T00:27:18Z</time>
      </trkpt>
      <trkpt lat="47.13332" lon="6.13898">
        <ele>405</ele>
        <time>2022-06-05T00:27:33Z</time>
      </trkpt>
      <trkpt lat="47.13352" lon="6.13943">
        <ele>401</ele>
        <time>2022-06-05T00:28:03Z</time>
      </trkpt>
      <trkpt lat="47.13364" lon="6.13953">
        <ele>397</ele>
        <time>2022-06-05T00:28:14Z</time>
      </trkpt>
      <trkpt lat="47.13373" lon="6.13973">
        <ele>396</ele>
        <time>2022-06-05T00:28:27Z</time>
      </trkpt>
      <trkpt lat="47.13389" lon="6.13996">
        <ele>393</ele>
        <time>2022-06-05T00:28:45Z</time>
      </trkpt>
      <trkpt lat="47.13402" lon="6.14009">
        <ele>389</ele>
        <time>2022-06-05T00:28:58Z</time>
      </trkpt>
      <trkpt lat="47.13405" lon="6.14026">
        <ele>389</ele>
        <time>2022-06-05T00:29:07Z</time>
      </trkpt>
      <trkpt lat="47.13413" lon="6.14195">
        <ele>393</ele>
        <time>2022-06-05T00:30:39Z</time>
      </trkpt>
      <trkpt lat="47.13398" lon="6.14278">
        <ele>398</ele>
        <time>2022-06-05T00:31:26Z</time>
      </trkpt>
      <trkpt lat="47.13389" lon="6.14375">
        <ele>394</ele>
        <time>2022-06-05T00:32:20Z</time>
      </trkpt>
      <trkpt lat="47.1338" lon="6.14429">
        <ele>391</ele>
        <time>2022-06-05T00:32:50Z</time>
      </trkpt>
      <trkpt lat="47.13365" lon="6.14482">
        <ele>390</ele>
        <time>2022-06-05T00:33:21Z</time>
      </trkpt>
      <trkpt lat="47.13351" lon="6.14569">
        <ele>380</ele>
        <time>2022-06-05T00:34:10Z</time>
      </trkpt>
      <trkpt lat="47.1334" lon="6.14609">
        <ele>377</ele>
        <time>2022-06-05T00:34:34Z</time>
      </trkpt>
      <trkpt lat="47.13337" lon="6.14659">
        <ele>372</ele>
        <time>2022-06-05T00:35:01Z</time>
      </trkpt>
      <trkpt lat="47.13324" lon="6.14729">
        <ele>372</ele>
        <time>2022-06-05T00:35:40Z</time>
      </trkpt>
      <trkpt lat="47.13324" lon="6.14753">
        <ele>371</ele>
        <time>2022-06-05T00:35:53Z</time>
      </trkpt>
      <trkpt lat="47.13334" lon="6.14807">
        <ele>363</ele>
        <time>2022-06-05T00:36:24Z</time>
      </trkpt>
      <trkpt lat="47.13323" lon="6.14914">
        <ele>359</ele>
        <time>2022-06-05T00:37:23Z</time>
      </trkpt>
      <trkpt lat="47.13317" lon="6.15011">
        <ele>362</ele>
        <time>2022-06-05T00:38:16Z</time>
      </trkpt>
      <trkpt lat="47.13319" lon="6.15042">
        <ele>363</ele>
        <time>2022-06-05T00:38:33Z</time>
      </trkpt>
      <trkpt lat="47.13333" lon="6.15058">
        <ele>363</ele>
        <time>2022-06-05T00:38:47Z</time>
      </trkpt>
      <trkpt lat="47.13345" lon="6.15082">
        <ele>365</ele>
        <time>2022-06-05T00:39:03Z</time>
      </trkpt>
      <trkpt lat="47.13356" lon="6.151">
        <ele>365</ele>
        <time>2022-06-05T00:39:16Z</time>
      </trkpt>
      <trkpt lat="47.13397" lon="6.15137">
        <ele>366</ele>
        <time>2022-06-05T00:39:55Z</time>
      </trkpt>
      <trkpt lat="47.13417" lon="6.15185">
        <ele>364</ele>
        <time>2022-06-05T00:40:25Z</time>
      </trkpt>
      <trkpt lat="47.13437" lon="6.1522">
        <ele>367</ele>
        <time>2022-06-05T00:40:50Z</time>
      </trkpt>
      <trkpt lat="47.13445" lon="6.1523">
        <ele>368</ele>
        <time>2022-06-05T00:40:59Z</time>
      </trkpt>
      <trkpt lat="47.13519" lon="6.15247">
        <ele>377</ele>
        <time>2022-06-05T00:41:59Z</time>
      </trkpt>
      <trkpt lat="47.13534" lon="6.15255">
        <ele>380</ele>
        <time>2022-06-05T00:42:12Z</time>
      </trkpt>
      <trkpt lat="47.13547" lon="6.15267">
        <ele>382</ele>
        <time>2022-06-05T00:42:24Z</time>
      </trkpt>
      <trkpt lat="47.1357" lon="6.15296">
        <ele>384</ele>
        <time>2022-06-05T00:42:48Z</time>
      </trkpt>
      <trkpt lat="47.13608" lon="6.15356">
        <ele>389</ele>
        <time>2022-06-05T00:43:33Z</time>
      </trkpt>
      <trkpt lat="47.13638" lon="6.15443">
        <ele>393</ele>
        <time>2022-06-05T00:44:26Z</time>
      </trkpt>
      <trkpt lat="47.13656" lon="6.15522">
        <ele>394</ele>
        <time>2022-06-05T00:45:12Z</time>
      </trkpt>
      <trkpt lat="47.13689" lon="6.15639">
        <ele>400</ele>
        <time>2022-06-05T00:46:21Z</time>
      </trkpt>
      <trkpt lat="47.13715" lon="6.15725">
        <ele>400</ele>
        <time>2022-06-05T00:47:12Z</time>
      </trkpt>
      <trkpt lat="47.13728" lon="6.15762">
        <ele>398</ele>
        <time>2022-06-05T00:47:35Z</time>
      </trkpt>
      <trkpt lat="47.13744" lon="6.15788">
        <ele>395</ele>
        <time>2022-06-05T00:47:54Z</time>
      </trkpt>
      <trkpt lat="47.13762" lon="6.15808">
        <ele>395</ele>
        <time>2022-06-05T00:48:12Z</time>
      </trkpt>
      <trkpt lat="47.13763" lon="6.15874">
        <ele>395</ele>
        <time>2022-06-05T00:48:48Z</time>
      </trkpt>
      <trkpt lat="47.13768" lon="6.15902">
        <ele>397</ele>
        <time>2022-06-05T00:49:04Z</time>
      </trkpt>
      <trkpt lat="47.13777" lon="6.15926">
        <ele>400</ele>
        <time>2022-06-05T00:49:19Z</time>
      </trkpt>
      <trkpt lat="47.13787" lon="6.15948">
        <ele>403</ele>
        <time>2022-06-05T00:49:33Z</time>
      </trkpt>
      <trkpt lat="47.13803" lon="6.1597">
        <ele>404</ele>
        <time>2022-06-05T00:49:51Z</time>
      </trkpt>
      <trkpt lat="47.1382" lon="6.15999">
        <ele>401</ele>
        <time>2022-06-05T00:50:12Z</time>
      </trkpt>
      <trkpt lat="47.13838" lon="6.16015">
        <ele>402</ele>
        <time>2022-06-05T00:50:28Z</time>
      </trkpt>
      <trkpt lat="47.13861" lon="6.16031">
        <ele>412</ele>
        <time>2022-06-05T00:50:49Z</time>
      </trkpt>
      <trkpt lat="47.13881" lon="6.1605">
        <ele>419</ele>
        <time>2022-06-05T00:51:08Z</time>
      </trkpt>
      <trkpt lat="47.13889" lon="6.16071">
        <ele>421</ele>
        <time>2022-06-05T00:51:22Z</time>
      </trkpt>
      <trkpt lat="47.13895" lon="6.16095">
        <ele>423</ele>
        <time>2022-06-05T00:51:35Z</time>
      </trkpt>
      <trkpt lat="47.13902" lon="6.16148">
        <ele>427</ele>
        <time>2022-06-05T00:52:05Z</time>
      </trkpt>
      <trkpt lat="47.13917" lon="6.16211">
        <ele>429</ele>
        <time>2022-06-05T00:52:41Z</time>
      </trkpt>
      <trkpt lat="47.13927" lon="6.16239">
        <ele>434</ele>
        <time>2022-06-05T00:52:59Z</time>
      </trkpt>
      <trkpt lat="47.13939" lon="6.16307">
        <ele>453</ele>
        <time>2022-06-05T00:53:37Z</time>
      </trkpt>
      <trkpt lat="47.13943" lon="6.16315">
        <ele>456</ele>
        <time>2022-06-05T00:53:42Z</time>
      </trkpt>
      <trkpt lat="47.13939" lon="6.16307">
        <ele>453</ele>
        <time>2022-06-05T00:53:48Z</time>
      </trkpt>
      <trkpt lat="47.13927" lon="6.16239">
        <ele>434</ele>
        <time>2022-06-05T00:54:26Z</time>
      </trkpt>
      <trkpt lat="47.13917" lon="6.16211">
        <ele>429</ele>
        <time>2022-06-05T00:54:43Z</time>
      </trkpt>
      <trkpt lat="47.13922" lon="6.16205">
        <ele>431</ele>
        <time>2022-06-05T00:54:49Z</time>
      </trkpt>
      <trkpt lat="47.13924" lon="6.16191">
        <ele>432</ele>
        <time>2022-06-05T00:54:56Z</time>
      </trkpt>
      <trkpt lat="47.13918" lon="6.16141">
        <ele>430</ele>
        <time>2022-06-05T00:55:24Z</time>
      </trkpt>
      <trkpt lat="47.13912" lon="6.16108">
        <ele>428</ele>
        <time>2022-06-05T00:55:43Z</time>
      </trkpt>
      <trkpt lat="47.13914" lon="6.16089">
        <ele>428</ele>
        <time>2022-06-05T00:55:53Z</time>
      </trkpt>
      <trkpt lat="47.13918" lon="6.16076">
        <ele>430</ele>
        <time>2022-06-05T00:56:01Z</time>
      </trkpt>
      <trkpt lat="47.13929" lon="6.16059">
        <ele>436</ele>
        <time>2022-06-05T00:56:13Z</time>
      </trkpt>
      <trkpt lat="47.1393" lon="6.16046">
        <ele>438</ele>
        <time>2022-06-05T00:56:21Z</time>
      </trkpt>
      <trkpt lat="47.13936" lon="6.16042">
        <ele>440</ele>
        <time>2022-06-05T00:56:25Z</time>
      </trkpt>
      <trkpt lat="47.13941" lon="6.16068">
        <ele>441</ele>
        <time>2022-06-05T00:56:40Z</time>
      </trkpt>
      <trkpt lat="47.13962" lon="6.16114">
        <ele>450</ele>
        <time>2022-06-05T00:57:10Z</time>
      </trkpt>
      <trkpt lat="47.13972" lon="6.16132">
        <ele>455</ele>
        <time>2022-06-05T00:57:23Z</time>
      </trkpt>
      <trkpt lat="47.13978" lon="6.16145">
        <ele>458</ele>
        <time>2022-06-05T00:57:31Z</time>
      </trkpt>
      <trkpt lat="47.1398" lon="6.16159">
        <ele>459</ele>
        <time>2022-06-05T00:57:39Z</time>
      </trkpt>
      <trkpt lat="47.13986" lon="6.16173">
        <ele>462</ele>
        <time>2022-06-05T00:57:48Z</time>
      </trkpt>
      <trkpt lat="47.1399" lon="6.16176">
        <ele>464</ele>
        <time>2022-06-05T00:57:52Z</time>
      </trkpt>
      <trkpt lat="47.13994" lon="6.16168">
        <ele>466</ele>
        <time>2022-06-05T00:57:58Z</time>
      </trkpt>
      <trkpt lat="47.13994" lon="6.16161">
        <ele>466</ele>
        <time>2022-06-05T00:58:02Z</time>
      </trkpt>
      <trkpt lat="47.1399" lon="6.16133">
        <ele>464</ele>
        <time>2022-06-05T00:58:17Z</time>
      </trkpt>
      <trkpt lat="47.13991" lon="6.16099">
        <ele>463</ele>
        <time>2022-06-05T00:58:35Z</time>
      </trkpt>
      <trkpt lat="47.13994" lon="6.16087">
        <ele>464</ele>
        <time>2022-06-05T00:58:42Z</time>
      </trkpt>
      <trkpt lat="47.13998" lon="6.16082">
        <ele>466</ele>
        <time>2022-06-05T00:58:46Z</time>
      </trkpt>
      <trkpt lat="47.14009" lon="6.16083">
        <ele>469</ele>
        <time>2022-06-05T00:58:56Z</time>
      </trkpt>
      <trkpt lat="47.14015" lon="6.16091">
        <ele>470</ele>
        <time>2022-06-05T00:59:02Z</time>
      </trkpt>
      <trkpt lat="47.14022" lon="6.16104">
        <ele>471</ele>
        <time>2022-06-05T00:59:11Z</time>
      </trkpt>
      <trkpt lat="47.1404" lon="6.16127">
        <ele>474</ele>
        <time>2022-06-05T00:59:30Z</time>
      </trkpt>
      <trkpt lat="47.14055" lon="6.16168">
        <ele>476</ele>
        <time>2022-06-05T00:59:56Z</time>
      </trkpt>
      <trkpt lat="47.1407" lon="6.16199">
        <ele>480</ele>
        <time>2022-06-05T01:00:16Z</time>
      </trkpt>
      <trkpt lat="47.14079" lon="6.16209">
        <ele>482</ele>
        <time>2022-06-05T01:00:25Z</time>
      </trkpt>
      <trkpt lat="47.14135" lon="6.16239">
        <ele>485</ele>
        <time>2022-06-05T01:01:13Z</time>
      </trkpt>
      <trkpt lat="47.14185" lon="6.16242">
        <ele>485</ele>
        <time>2022-06-05T01:01:53Z</time>
      </trkpt>
      <trkpt lat="47.14192" lon="6.1625">
        <ele>485</ele>
        <time>2022-06-05T01:02:00Z</time>
      </trkpt>
      <trkpt lat="47.14209" lon="6.1628">
        <ele>486</ele>
        <time>2022-06-05T01:02:22Z</time>
      </trkpt>
      <trkpt lat="47.1422" lon="6.16291">
        <ele>486</ele>
        <time>2022-06-05T01:02:32Z</time>
      </trkpt>
      <trkpt lat="47.14226" lon="6.16296">
        <ele>486</ele>
        <time>2022-06-05T01:02:38Z</time>
      </trkpt>
      <trkpt lat="47.14228" lon="6.16295">
        <ele>486</ele>
        <time>2022-06-05T01:02:40Z</time>
      </trkpt>
      <trkpt lat="47.1423" lon="6.163">
        <ele>486</ele>
        <time>2022-06-05T01:02:42Z</time>
      </trkpt>
      <trkpt lat="47.14204" lon="6.16249">
        <ele>486</ele>
        <time>2022-06-05T01:03:17Z</time>
      </trkpt>
      <trkpt lat="47.14192" lon="6.1623">
        <ele>487</ele>
        <time>2022-06-05T01:03:31Z</time>
      </trkpt>
      <trkpt lat="47.14178" lon="6.16212">
        <ele>487</ele>
        <time>2022-06-05T01:03:46Z</time>
      </trkpt>
      <trkpt lat="47.14128" lon="6.16158">
        <ele>484</ele>
        <time>2022-06-05T01:04:36Z</time>
      </trkpt>
      <trkpt lat="47.14098" lon="6.16121">
        <ele>483</ele>
        <time>2022-06-05T01:05:07Z</time>
      </trkpt>
      <trkpt lat="47.14074" lon="6.16087">
        <ele>481</ele>
        <time>2022-06-05T01:05:34Z</time>
      </trkpt>
      <trkpt lat="47.14055" lon="6.16052">
        <ele>479</ele>
        <time>2022-06-05T01:05:58Z</time>
      </trkpt>
      <trkpt lat="47.1403" lon="6.15984">
        <ele>474</ele>
        <time>2022-06-05T01:06:41Z</time>
      </trkpt>
      <trkpt lat="47.13999" lon="6.15872">
        <ele>471</ele>
        <time>2022-06-05T01:07:46Z</time>
      </trkpt>
      <trkpt lat="47.13986" lon="6.15832">
        <ele>469</ele>
        <time>2022-06-05T01:08:11Z</time>
      </trkpt>
      <trkpt lat="47.1397" lon="6.15794">
        <ele>471</ele>
        <time>2022-06-05T01:08:35Z</time>
      </trkpt>
      <trkpt lat="47.13946" lon="6.1575">
        <ele>471</ele>
        <time>2022-06-05T01:09:06Z</time>
      </trkpt>
      <trkpt lat="47.13849" lon="6.15633">
        <ele>466</ele>
        <time>2022-06-05T01:10:46Z</time>
      </trkpt>
      <trkpt lat="47.13818" lon="6.15585">
        <ele>466</ele>
        <time>2022-06-05T01:11:22Z</time>
      </trkpt>
      <trkpt lat="47.13787" lon="6.1552">
        <ele>461</ele>
        <time>2022-06-05T01:12:06Z</time>
      </trkpt>
      <trkpt lat="47.13774" lon="6.1548">
        <ele>460</ele>
        <time>2022-06-05T01:12:30Z</time>
      </trkpt>
      <trkpt lat="47.13738" lon="6.15321">
        <ele>459</ele>
        <time>2022-06-05T01:14:01Z</time>
      </trkpt>
      <trkpt lat="47.13727" lon="6.15275">
        <ele>458</ele>
        <time>2022-06-05T01:14:28Z</time>
      </trkpt>
      <trkpt lat="47.13716" lon="6.15242">
        <ele>458</ele>
        <time>2022-06-05T01:14:48Z</time>
      </trkpt>
      <trkpt lat="47.13705" lon="6.1521">
        <ele>458</ele>
        <time>2022-06-05T01:15:07Z</time>
      </trkpt>
      <trkpt lat="47.13632" lon="6.15063">
        <ele>463</ele>
        <time>2022-06-05T01:16:47Z</time>
      </trkpt>
      <trkpt lat="47.13616" lon="6.15017">
        <ele>467</ele>
        <time>2022-06-05T01:17:15Z</time>
      </trkpt>
      <trkpt lat="47.13603" lon="6.1497">
        <ele>467</ele>
        <time>2022-06-05T01:17:42Z</time>
      </trkpt>
      <trkpt lat="47.13594" lon="6.14903">
        <ele>465</ele>
        <time>2022-06-05T01:18:20Z</time>
      </trkpt>
      <trkpt lat="47.13592" lon="6.14861">
        <ele>460</ele>
        <time>2022-06-05T01:18:43Z</time>
      </trkpt>
      <trkpt lat="47.13596" lon="6.14811">
        <ele>455</ele>
        <time>2022-06-05T01:19:10Z</time>
      </trkpt>
      <trkpt lat="47.13615" lon="6.14676">
        <ele>444</ele>
        <time>2022-06-05T01:20:25Z</time>
      </trkpt>
      <trkpt lat="47.13618" lon="6.14523">
        <ele>442</ele>
        <time>2022-06-05T01:21:49Z</time>
      </trkpt>
      <trkpt lat="47.13623" lon="6.1446">
        <ele>442</ele>
        <time>2022-06-05T01:22:24Z</time>
      </trkpt>
      <trkpt lat="47.1363" lon="6.14416">
        <ele>442</ele>
        <time>2022-06-05T01:22:48Z</time>
      </trkpt>
      <trkpt lat="47.13643" lon="6.14373">
        <ele>442</ele>
        <time>2022-06-05T01:23:14Z</time>
      </trkpt>
      <trkpt lat="47.13686" lon="6.14243">
        <ele>443</ele>
        <time>2022-06-05T01:24:32Z</time>
      </trkpt>
      <trkpt lat="47.13698" lon="6.14186">
        <ele>442</ele>
        <time>2022-06-05T01:25:05Z</time>
      </trkpt>
      <trkpt lat="47.13702" lon="6.1415">
        <ele>441</ele>
        <time>2022-06-05T01:25:25Z</time>
      </trkpt>
      <trkpt lat="47.13705" lon="6.14099">
        <ele>441</ele>
        <time>2022-06-05T01:25:52Z</time>
      </trkpt>
      <trkpt lat="47.13702" lon="6.14042">
        <ele>442</ele>
        <time>2022-06-05T01:26:24Z</time>
      </trkpt>
      <trkpt lat="47.13695" lon="6.13988">
        <ele>443</ele>
        <time>2022-06-05T01:26:54Z</time>
      </trkpt>
      <trkpt lat="47.1368" lon="6.13931">
        <ele>439</ele>
        <time>2022-06-05T01:27:27Z</time>
      </trkpt>
      <trkpt lat="47.13632" lon="6.13788">
        <ele>432</ele>
        <time>2022-06-05T01:28:54Z</time>
      </trkpt>
      <trkpt lat="47.13619" lon="6.13734">
        <ele>430</ele>
        <time>2022-06-05T01:29:25Z</time>
      </trkpt>
      <trkpt lat="47.13588" lon="6.13478">
        <ele>424</ele>
        <time>2022-06-05T01:31:47Z</time>
      </trkpt>
      <trkpt lat="47.13579" lon="6.13438">
        <ele>424</ele>
        <time>2022-06-05T01:32:10Z</time>
      </trkpt>
      <trkpt lat="47.13563" lon="6.13387">
        <ele>424</ele>
        <time>2022-06-05T01:32:41Z</time>
      </trkpt>
      <trkpt lat="47.13531" lon="6.13321">
        <ele>421</ele>
        <time>2022-06-05T01:33:25Z</time>
      </trkpt>
      <trkpt lat="47.13455" lon="6.13167">
        <ele>418</ele>
        <time>2022-06-05T01:35:09Z</time>
      </trkpt>
      <trkpt lat="47.134" lon="6.13045">
        <ele>416</ele>
        <time>2022-06-05T01:36:28Z</time>
      </trkpt>
      <trkpt lat="47.13371" lon="6.12992">
        <ele>413</ele>
        <time>2022-06-05T01:37:05Z</time>
      </trkpt>
      <trkpt lat="47.13356" lon="6.12974">
        <ele>411</ele>
        <time>2022-06-05T01:37:21Z</time>
      </trkpt>
      <trkpt lat="47.13314" lon="6.12937">
        <ele>406</ele>
        <time>2022-06-05T01:38:00Z</time>
      </trkpt>
      <trkpt lat="47.13287" lon="6.12918">
        <ele>406</ele>
        <time>2022-06-05T01:38:25Z</time>
      </trkpt>
      <trkpt lat="47.13261" lon="6.12904">
        <ele>405</ele>
        <time>2022-06-05T01:38:46Z</time>
      </trkpt>
      <trkpt lat="47.13196" lon="6.1288">
        <ele>402</ele>
        <time>2022-06-05T01:39:40Z</time>
      </trkpt>
      <trkpt lat="47.13166" lon="6.12865">
        <ele>403</ele>
        <time>2022-06-05T01:40:05Z</time>
      </trkpt>
      <trkpt lat="47.13134" lon="6.12842">
        <ele>399</ele>
        <time>2022-06-05T01:40:34Z</time>
      </trkpt>
      <trkpt lat="47.13094" lon="6.12801">
        <ele>396</ele>
        <time>2022-06-05T01:41:13Z</time>
      </trkpt>
      <trkpt lat="47.12995" lon="6.12678">
        <ele>399</ele>
        <time>2022-06-05T01:42:57Z</time>
      </trkpt>
      <trkpt lat="47.12949" lon="6.12608">
        <ele>396</ele>
        <time>2022-06-05T01:43:51Z</time>
      </trkpt>
      <trkpt lat="47.12928" lon="6.12565">
        <ele>395</ele>
        <time>2022-06-05T01:44:19Z</time>
      </trkpt>
      <trkpt lat="47.12939" lon="6.12548">
        <ele>399</ele>
        <time>2022-06-05T01:44:32Z</time>
      </trkpt>
      <trkpt lat="47.12953" lon="6.12521">
        <ele>403</ele>
        <time>2022-06-05T01:44:51Z</time>
      </trkpt>
      <trkpt lat="47.12959" lon="6.12504">
        <ele>404</ele>
        <time>2022-06-05T01:45:02Z</time>
      </trkpt>
      <trkpt lat="47.1296" lon="6.12498">
        <ele>405</ele>
        <time>2022-06-05T01:45:05Z</time>
      </trkpt>
      <trkpt lat="47.12958" lon="6.12488">
        <ele>406</ele>
        <time>2022-06-05T01:45:11Z</time>
      </trkpt>
      <trkpt lat="47.12953" lon="6.12474">
        <ele>406</ele>
        <time>2022-06-05T01:45:19Z</time>
      </trkpt>
      <trkpt lat="47.12954" lon="6.12464">
        <ele>407</ele>
        <time>2022-06-05T01:45:25Z</time>
      </trkpt>
      <trkpt lat="47.12953" lon="6.12453">
        <ele>408</ele>
        <time>2022-06-05T01:45:31Z</time>
      </trkpt>
      <trkpt lat="47.12948" lon="6.12444">
        <ele>409</ele>
        <time>2022-06-05T01:45:37Z</time>
      </trkpt>
      <trkpt lat="47.12953" lon="6.12434">
        <ele>410</ele>
        <time>2022-06-05T01:45:43Z</time>
      </trkpt>
      <trkpt lat="47.12948" lon="6.12433">
        <ele>410</ele>
        <time>2022-06-05T01:45:47Z</time>
      </trkpt>
      <trkpt lat="47.12953" lon="6.12434">
        <ele>410</ele>
        <time>2022-06-05T01:45:50Z</time>
      </trkpt>
      <trkpt lat="47.12948" lon="6.12444">
        <ele>409</ele>
        <time>2022-06-05T01:45:57Z</time>
      </trkpt>
      <trkpt lat="47.12953" lon="6.12453">
        <ele>408</ele>
        <time>2022-06-05T01:46:03Z</time>
      </trkpt>
      <trkpt lat="47.12954" lon="6.12464">
        <ele>407</ele>
        <time>2022-06-05T01:46:09Z</time>
      </trkpt>
      <trkpt lat="47.12953" lon="6.12474">
        <ele>406</ele>
        <time>2022-06-05T01:46:14Z</time>
      </trkpt>
      <trkpt lat="47.12958" lon="6.12488">
        <ele>406</ele>
        <time>2022-06-05T01:46:23Z</time>
      </trkpt>
      <trkpt lat="47.1296" lon="6.12498">
        <ele>405</ele>
        <time>2022-06-05T01:46:29Z</time>
      </trkpt>
      <trkpt lat="47.12959" lon="6.12504">
        <ele>404</ele>
        <time>2022-06-05T01:46:32Z</time>
      </trkpt>
      <trkpt lat="47.12953" lon="6.12521">
        <ele>403</ele>
        <time>2022-06-05T01:46:42Z</time>
      </trkpt>
      <trkpt lat="47.12939" lon="6.12548">
        <ele>399</ele>
        <time>2022-06-05T01:47:01Z</time>
      </trkpt>
      <trkpt lat="47.12928" lon="6.12565">
        <ele>395</ele>
        <time>2022-06-05T01:47:14Z</time>
      </trkpt>
      <trkpt lat="47.12899" lon="6.12587">
        <ele>388</ele>
        <time>2022-06-05T01:47:40Z</time>
      </trkpt>
      <trkpt lat="47.12875" lon="6.12593">
        <ele>384</ele>
        <time>2022-06-05T01:47:59Z</time>
      </trkpt>
      <trkpt lat="47.12838" lon="6.12578">
        <ele>379</ele>
        <time>2022-06-05T01:48:30Z</time>
      </trkpt>
      <trkpt lat="47.12819" lon="6.12567">
        <ele>377</ele>
        <time>2022-06-05T01:48:46Z</time>
      </trkpt>
      <trkpt lat="47.12804" lon="6.12555">
        <ele>376</ele>
        <time>2022-06-05T01:49:00Z</time>
      </trkpt>
      <trkpt lat="47.12794" lon="6.1253">
        <ele>376</ele>
        <time>2022-06-05T01:49:16Z</time>
      </trkpt>
      <trkpt lat="47.12787" lon="6.12509">
        <ele>377</ele>
        <time>2022-06-05T01:49:29Z</time>
      </trkpt>
      <trkpt lat="47.1278" lon="6.12502">
        <ele>376</ele>
        <time>2022-06-05T01:49:36Z</time>
      </trkpt>
      <trkpt lat="47.12772" lon="6.12505">
        <ele>375</ele>
        <time>2022-06-05T01:49:42Z</time>
      </trkpt>
      <trkpt lat="47.12756" lon="6.12506">
        <ele>372</ele>
        <time>2022-06-05T01:49:55Z</time>
      </trkpt>
      <trkpt lat="47.1273" lon="6.12502">
        <ele>370</ele>
        <time>2022-06-05T01:50:16Z</time>
      </trkpt>
      <trkpt lat="47.127" lon="6.12505">
        <ele>366</ele>
        <time>2022-06-05T01:50:40Z</time>
      </trkpt>
      <trkpt lat="47.12689" lon="6.12502">
        <ele>365</ele>
        <time>2022-06-05T01:50:49Z</time>
      </trkpt>
      <trkpt lat="47.12653" lon="6.12483">
        <ele>366</ele>
        <time>2022-06-05T01:51:20Z</time>
      </trkpt>
      <trkpt lat="47.12634" lon="6.12475">
        <ele>365</ele>
        <time>2022-06-05T01:51:36Z</time>
      </trkpt>
      <trkpt lat="47.12608" lon="6.12457">
        <ele>365</ele>
        <time>2022-06-05T01:51:58Z</time>
      </trkpt>
      <trkpt lat="47.12577" lon="6.12447">
        <ele>362</ele>
        <time>2022-06-05T01:52:24Z</time>
      </trkpt>
      <trkpt lat="47.12427" lon="6.12371">
        <ele>361</ele>
        <time>2022-06-05T01:54:31Z</time>
      </trkpt>
      <trkpt lat="47.12371" lon="6.1234">
        <ele>355</ele>
        <time>2022-06-05T01:55:19Z</time>
      </trkpt>
      <trkpt lat="47.12346" lon="6.12324">
        <ele>353</ele>
        <time>2022-06-05T01:55:41Z</time>
      </trkpt>
      <trkpt lat="47.12327" lon="6.12321">
        <ele>351</ele>
        <time>2022-06-05T01:55:56Z</time>
      </trkpt>
      <trkpt lat="47.12294" lon="6.12308">
        <ele>352</ele>
        <time>2022-06-05T01:56:24Z</time>
      </trkpt>
      <trkpt lat="47.12263" lon="6.123">
        <ele>351</ele>
        <time>2022-06-05T01:56:49Z</time>
      </trkpt>
      <trkpt lat="47.12199" lon="6.12278">
        <ele>349</ele>
        <time>2022-06-05T01:57:42Z</time>
      </trkpt>
      <trkpt lat="47.1215" lon="6.12273">
        <ele>344</ele>
        <time>2022-06-05T01:58:21Z</time>
      </trkpt>
      <trkpt lat="47.12092" lon="6.12252">
        <ele>339</ele>
        <time>2022-06-05T01:59:09Z</time>
      </trkpt>
      <trkpt lat="47.12076" lon="6.12243">
        <ele>339</ele>
        <time>2022-06-05T01:59:22Z</time>
      </trkpt>
      <trkpt lat="47.12055" lon="6.12242">
        <ele>339</ele>
        <time>2022-06-05T01:59:39Z</time>
      </trkpt>
      <trkpt lat="47.12017" lon="6.12246">
        <ele>340</ele>
        <time>2022-06-05T02:00:10Z</time>
      </trkpt>
      <trkpt lat="47.11995" lon="6.12232">
        <ele>341</ele>
        <time>2022-06-05T02:00:30Z</time>
      </trkpt>
      <trkpt lat="47.1197" lon="6.12186">
        <ele>341</ele>
        <time>2022-06-05T02:01:02Z</time>
      </trkpt>
      <trkpt lat="47.11966" lon="6.12159">
        <ele>340</ele>
        <time>2022-06-05T02:01:16Z</time>
      </trkpt>
      <trkpt lat="47.11968" lon="6.12149">
        <ele>340</ele>
        <time>2022-06-05T02:01:22Z</time>
      </trkpt>
      <trkpt lat="47.11975" lon="6.12145">
        <ele>340</ele>
        <time>2022-06-05T02:01:28Z</time>
      </trkpt>
      <trkpt lat="47.11986" lon="6.12151">
        <ele>340</ele>
        <time>2022-06-05T02:01:38Z</time>
      </trkpt>
      <trkpt lat="47.12" lon="6.12169">
        <ele>340</ele>
        <time>2022-06-05T02:01:52Z</time>
      </trkpt>
      <trkpt lat="47.12018" lon="6.12182">
        <ele>342</ele>
        <time>2022-06-05T02:02:08Z</time>
      </trkpt>
      <trkpt lat="47.12049" lon="6.12186">
        <ele>344</ele>
        <time>2022-06-05T02:02:33Z</time>
      </trkpt>
      <trkpt lat="47.1206" lon="6.12179">
        <ele>346</ele>
        <time>2022-06-05T02:02:43Z</time>
      </trkpt>
      <trkpt lat="47.1204" lon="6.12172">
        <ele>344</ele>
        <time>2022-06-05T02:03:00Z</time>
      </trkpt>
      <trkpt lat="47.12012" lon="6.12148">
        <ele>343</ele>
        <time>2022-06-05T02:03:26Z</time>
      </trkpt>
      <trkpt lat="47.1196" lon="6.12096">
        <ele>340</ele>
        <time>2022-06-05T02:04:16Z</time>
      </trkpt>
      <trkpt lat="47.11948" lon="6.12089">
        <ele>339</ele>
        <time>2022-06-05T02:04:27Z</time>
      </trkpt>
      <trkpt lat="47.11933" lon="6.12084">
        <ele>337</ele>
        <time>2022-06-05T02:04:39Z</time>
      </trkpt>
      <trkpt lat="47.11923" lon="6.12083">
        <ele>337</ele>
        <time>2022-06-05T02:04:47Z</time>
      </trkpt>
      <trkpt lat="47.11894" lon="6.12092">
        <ele>338</ele>
        <time>2022-06-05T02:05:11Z</time>
      </trkpt>
      <trkpt lat="47.1187" lon="6.12096">
        <ele>340</ele>
        <time>2022-06-05T02:05:30Z</time>
      </trkpt>
      <trkpt lat="47.11846" lon="6.12093">
        <ele>341</ele>
        <time>2022-06-05T02:05:49Z</time>
      </trkpt>
    </trkseg>
  </trk>
</gpx>